Time;durP1;ratioP1;P1;durP2;ratioP2;P2;SDS_P1;SDS_P2;PMS_P1;PMS_P2;Temp;Humidity;BMP_temperature;BMP_pressure;BME280_temperature;BME280_humidity;BME280_pressure;Samples;Min_cycle;Max_cycle;Signal;HPM_P1;HPM_P2
2023/07/01 00:00:06;;;;;;;;;3.00;2.00;;;;;20.80;43.82;100669.97;5064944;28;45499;-68
2023/07/01 00:02:31;;;;;;;;;4.25;3.00;;;;;20.81;43.56;100681.50;5066386;28;45410;-68
2023/07/01 00:04:59;;;;;;;;;3.50;2.00;;;;;20.78;42.97;100688.75;5065918;28;45227;-69
2023/07/01 00:07:24;;;;;;;;;1.25;1.25;;;;;20.76;43.51;100677.28;5066230;28;45257;-71
2023/07/01 00:09:50;;;;;;;;;3.00;2.00;;;;;20.73;43.70;100666.78;5065877;28;45220;-68
2023/07/01 00:12:15;;;;;;;;;2.00;2.00;;;;;20.71;43.88;100682.03;5066243;28;45324;-70
2023/07/01 00:14:40;;;;;;;;;3.00;3.00;;;;;20.68;43.72;100666.16;5066073;28;45340;-69
2023/07/01 00:17:09;;;;;;;;;2.75;2.25;;;;;20.68;44.12;100665.28;5066065;28;45323;-68
2023/07/01 00:19:34;;;;;;;;;6.50;3.00;;;;;20.66;44.01;100664.53;5065685;28;45312;-68
2023/07/01 00:22:01;;;;;;;;;4.00;4.00;;;;;20.65;43.83;100663.66;5065747;28;45561;-68
2023/07/01 00:24:27;;;;;;;;;8.00;6.50;;;;;20.62;44.57;100666.53;5065980;28;45327;-69
2023/07/01 00:26:52;;;;;;;;;8.75;7.00;;;;;20.57;44.10;100656.09;5064498;28;45319;-69
2023/07/01 00:29:17;;;;;;;;;14.75;14.25;;;;;20.59;44.68;100658.66;5065787;28;45478;-69
2023/07/01 00:31:43;;;;;;;;;10.00;10.00;;;;;20.54;44.12;100652.75;5064451;28;47924;-68
2023/07/01 00:34:08;;;;;;;;;15.25;13.75;;;;;20.56;44.15;100648.19;5065736;28;45310;-68
2023/07/01 00:36:33;;;;;;;;;15.75;15.25;;;;;20.53;44.80;100651.03;5066009;28;45529;-69
2023/07/01 00:38:59;;;;;;;;;15.25;11.50;;;;;20.55;44.47;100647.34;5072534;28;45685;-68
2023/07/01 00:41:24;;;;;;;;;11.25;10.00;;;;;20.52;44.71;100639.50;5062533;28;46202;-68
2023/07/01 00:43:50;;;;;;;;;16.00;14.75;;;;;20.53;44.56;100643.03;5071466;28;45284;-68
2023/07/01 00:46:18;;;;;;;;;16.00;15.50;;;;;20.53;44.69;100641.22;5067016;28;45702;-68
2023/07/01 00:48:44;;;;;;;;;16.75;15.75;;;;;20.52;44.55;100630.63;5077390;28;45587;-68
2023/07/01 00:51:10;;;;;;;;;12.50;10.25;;;;;20.52;44.74;100639.50;5069062;28;45374;-68
2023/07/01 00:53:36;;;;;;;;;8.50;8.00;;;;;20.49;45.00;100629.00;5080862;28;45275;-68
2023/07/01 00:56:03;;;;;;;;;9.00;7.00;;;;;20.49;45.37;100629.00;5082510;27;45271;-71
2023/07/01 00:58:28;;;;;;;;;4.00;4.00;;;;;20.46;45.45;100623.81;5072766;28;45227;-68
2023/07/01 01:00:56;;;;;;;;;5.00;4.00;;;;;20.46;45.42;100622.03;5061870;28;51233;-68
2023/07/01 01:03:30;;;;;;;;;5.25;5.25;;;;;20.43;45.87;100624.03;5062235;28;45425;-70
2023/07/01 01:06:04;;;;;;;;;4.75;4.75;;;;;20.44;45.90;100617.75;5062076;28;45426;-69
2023/07/01 01:08:50;;;;;;;;;2.00;2.00;;;;;20.42;46.07;100622.28;5074085;28;45295;-70
2023/07/01 01:11:16;;;;;;;;;4.00;2.75;;;;;20.38;46.02;100613.59;5060523;28;48170;-70
2023/07/01 01:13:46;;;;;;;;;4.00;3.00;;;;;20.37;46.24;100613.69;5082012;28;45325;-69
2023/07/01 01:16:12;;;;;;;;;4.00;4.00;;;;;20.29;46.41;100601.66;5082236;28;45359;-69
2023/07/01 01:18:42;;;;;;;;;6.00;4.25;;;;;20.35;46.00;100602.25;5073934;28;45261;-69
2023/07/01 01:21:11;;;;;;;;;1.75;1.75;;;;;20.27;45.89;100598.19;5070938;28;46914;-69
2023/07/01 01:23:42;;;;;;;;;4.50;2.25;;;;;20.30;46.50;100602.50;5061574;28;45410;-68
2023/07/01 01:26:17;;;;;;;;;4.25;3.25;;;;;20.27;46.49;100605.34;5061723;28;45316;-69
2023/07/01 01:28:43;;;;;;;;;3.50;2.50;;;;;20.24;46.64;100605.53;5060349;28;45340;-69
2023/07/01 01:31:09;;;;;;;;;2.25;2.25;;;;;20.19;46.60;100599.56;5061368;28;45304;-70
2023/07/01 01:33:35;;;;;;;;;2.75;2.75;;;;;20.15;47.17;100596.25;5060400;28;45436;-69
2023/07/01 01:36:33;;;;;;;;;2.00;2.00;;;;;20.12;47.35;100599.94;5061575;28;45172;-69
2023/07/01 01:39:06;;;;;;;;;2.75;2.75;;;;;20.11;47.49;100598.22;5060044;28;46380;-69
2023/07/01 01:41:52;;;;;;;;;5.50;3.00;;;;;20.07;47.01;100595.81;5060093;28;46998;-68
2023/07/01 01:44:25;;;;;;;;;3.75;3.00;;;;;20.04;47.20;100586.19;5061329;28;45466;-68
2023/07/01 01:46:51;;;;;;;;;4.25;3.00;;;;;20.02;47.31;100577.38;5071964;28;45278;-67
2023/07/01 01:49:18;;;;;;;;;5.00;4.00;;;;;19.99;47.38;100582.91;5062765;28;45280;-68
2023/07/01 01:51:44;;;;;;;;;3.00;3.00;;;;;19.97;47.85;100574.13;5072011;28;45458;-67
2023/07/01 01:54:12;;;;;;;;;3.25;3.25;;;;;19.92;47.75;100579.75;5080376;27;45285;-68
2023/07/01 01:56:38;;;;;;;;;3.00;3.00;;;;;19.90;47.70;100572.75;5080210;28;45339;-67
2023/07/01 01:59:03;;;;;;;;;3.75;3.00;;;;;19.85;48.30;100561.47;5065480;28;45497;-68
2023/07/01 02:01:29;;;;;;;;;4.00;4.00;;;;;19.78;47.77;100564.44;5061056;28;45354;-68
2023/07/01 02:03:55;;;;;;;;;4.00;2.75;;;;;19.79;47.83;100568.00;5059745;28;45324;-68
2023/07/01 02:06:20;;;;;;;;;3.00;3.00;;;;;19.74;48.70;100556.72;5061266;28;45497;-68
2023/07/01 02:08:46;;;;;;;;;2.00;2.00;;;;;19.71;48.78;100549.75;5059396;28;45343;-68
2023/07/01 02:11:11;;;;;;;;;6.25;3.25;;;;;19.67;48.55;100556.19;5060792;28;46185;-68
2023/07/01 02:13:37;;;;;;;;;3.75;3.75;;;;;19.66;48.66;100551.81;5060964;28;45250;-68
2023/07/01 02:16:02;;;;;;;;;5.25;3.00;;;;;19.61;48.63;100546.75;5061209;28;45415;-67
2023/07/01 02:18:27;;;;;;;;;3.00;2.00;;;;;19.60;48.82;100542.34;5060987;28;45208;-68
2023/07/01 02:20:53;;;;;;;;;4.25;3.75;;;;;19.60;48.74;100546.84;5060726;28;46253;-68
2023/07/01 02:23:18;;;;;;;;;4.00;4.00;;;;;19.59;49.01;100545.09;5060501;28;45260;-68
2023/07/01 02:25:43;;;;;;;;;3.50;3.50;;;;;19.57;48.78;100533.66;5061088;28;45265;-68
2023/07/01 02:28:09;;;;;;;;;3.00;2.25;;;;;19.54;48.65;100529.38;5060613;28;45153;-68
2023/07/01 02:30:35;;;;;;;;;5.00;3.50;;;;;19.53;49.29;100532.13;5060928;28;45366;-68
2023/07/01 02:33:02;;;;;;;;;4.00;2.50;;;;;19.51;49.24;100529.53;5060508;28;45486;-68
2023/07/01 02:35:27;;;;;;;;;3.25;3.25;;;;;19.51;49.26;100520.66;5060781;28;45439;-67
2023/07/01 02:37:52;;;;;;;;;4.00;2.75;;;;;19.49;49.55;100528.75;5060122;28;45601;-67
2023/07/01 02:40:18;;;;;;;;;1.00;1.00;;;;;19.45;49.60;100522.72;5060492;28;45378;-68
2023/07/01 02:42:43;;;;;;;;;3.00;2.00;;;;;19.45;49.92;100532.53;5059163;28;45391;-68
2023/07/01 02:45:09;;;;;;;;;3.50;3.50;;;;;19.42;50.07;100522.91;5060780;28;45299;-68
2023/07/01 02:47:34;;;;;;;;;2.25;2.00;;;;;19.41;49.95;100517.69;5072345;28;45582;-67
2023/07/01 02:50:00;;;;;;;;;3.75;3.00;;;;;19.37;50.17;100519.66;5060556;28;45375;-68
2023/07/01 02:52:26;;;;;;;;;2.00;2.00;;;;;19.36;50.31;100511.72;5060308;28;45616;-67
2023/07/01 02:54:51;;;;;;;;;2.25;2.25;;;;;19.36;50.14;100515.25;5060295;28;45235;-68
2023/07/01 02:57:16;;;;;;;;;3.00;2.75;;;;;19.36;50.37;100512.59;5060258;28;45226;-68
2023/07/01 02:59:43;;;;;;;;;3.50;2.50;;;;;19.35;50.44;100513.53;5067222;28;47142;-68
2023/07/01 03:02:08;;;;;;;;;3.75;3.00;;;;;19.29;50.58;100505.88;5059819;28;45228;-69
2023/07/01 03:04:34;;;;;;;;;4.00;2.25;;;;;19.30;50.55;100515.59;5060396;28;45395;-68
2023/07/01 03:06:59;;;;;;;;;6.00;4.25;;;;;19.31;50.61;100501.34;5059936;28;45146;-69
2023/07/01 03:09:25;;;;;;;;;4.00;4.00;;;;;19.30;50.96;100496.94;5058810;28;45711;-69
2023/07/01 03:11:52;;;;;;;;;2.25;2.25;;;;;19.26;50.87;100495.41;5060012;28;45631;-69
2023/07/01 03:14:17;;;;;;;;;2.00;2.00;;;;;19.29;50.85;100500.53;5059004;28;45391;-69
2023/07/01 03:16:42;;;;;;;;;3.00;1.50;;;;;19.25;50.81;100491.84;5073286;28;45437;-69
2023/07/01 03:19:08;;;;;;;;;2.75;2.75;;;;;19.26;50.84;100490.06;5059994;28;45256;-69
2023/07/01 03:21:34;;;;;;;;;2.25;2.25;;;;;19.28;50.66;100490.81;5058230;28;45261;-70
2023/07/01 03:24:00;;;;;;;;;3.50;2.00;;;;;19.28;51.32;100491.69;5058929;28;45439;-69
2023/07/01 03:26:26;;;;;;;;;3.75;2.00;;;;;19.28;51.26;100489.03;5059755;28;45434;-70
2023/07/01 03:28:53;;;;;;;;;3.50;3.50;;;;;19.28;51.04;100480.16;5059874;28;45251;-70
2023/07/01 03:31:19;;;;;;;;;3.00;2.75;;;;;19.25;51.47;100483.00;5059831;28;45382;-70
2023/07/01 03:33:45;;;;;;;;;3.00;3.00;;;;;19.26;51.49;100492.72;5059885;28;45517;-70
2023/07/01 03:36:10;;;;;;;;;2.50;1.50;;;;;19.24;51.61;100492.78;5059843;28;45306;-70
2023/07/01 03:38:36;;;;;;;;;1.50;1.50;;;;;19.25;51.79;100489.19;5058264;28;48051;-71
2023/07/01 03:41:01;;;;;;;;;2.00;2.00;;;;;19.25;51.97;100488.34;5058415;28;45378;-71
2023/07/01 03:43:28;;;;;;;;;2.00;2.00;;;;;19.24;51.85;100481.28;5059993;28;45486;-71
2023/07/01 03:45:54;;;;;;;;;4.25;3.25;;;;;19.22;52.22;100477.84;5062116;28;45405;-71
2023/07/01 03:48:19;;;;;;;;;2.50;2.50;;;;;19.20;51.62;100475.25;5068618;28;45415;-73
2023/07/01 03:50:44;;;;;;;;;3.00;3.00;;;;;19.17;52.06;100459.47;5075959;28;46026;-72
2023/07/01 03:53:10;;;;;;;;;3.00;2.50;;;;;19.20;52.08;100474.41;5069282;28;45440;-71
2023/07/01 03:55:35;;;;;;;;;2.00;2.00;;;;;19.19;52.35;100468.22;5072198;28;45260;-71
2023/07/01 03:58:00;;;;;;;;;1.00;1.00;;;;;19.20;52.05;100469.09;5059457;28;46110;-73
2023/07/01 04:00:26;;;;;;;;;2.00;2.00;;;;;19.20;52.50;100464.63;5075301;28;45837;-72
2023/07/01 04:02:51;;;;;;;;;3.00;2.50;;;;;19.19;52.43;100457.56;5069873;28;45196;-72
2023/07/01 04:05:18;;;;;;;;;2.75;2.75;;;;;19.20;52.29;100469.09;5059441;28;45410;-72
2023/07/01 04:07:46;;;;;;;;;4.25;3.00;;;;;19.19;52.46;100459.38;5059083;28;45496;-72
2023/07/01 04:10:13;;;;;;;;;3.75;3.75;;;;;19.20;52.42;100458.44;5059205;28;45366;-72
2023/07/01 04:12:39;;;;;;;;;5.00;3.50;;;;;19.19;52.80;100459.38;5059530;28;45321;-72
2023/07/01 04:15:09;;;;;;;;;4.50;4.00;;;;;19.17;52.75;100456.81;5061381;28;45316;-72
2023/07/01 04:17:35;;;;;;;;;5.25;4.00;;;;;19.16;52.51;100442.59;5062745;28;46061;-73
2023/07/01 04:20:02;;;;;;;;;5.50;4.00;;;;;19.17;52.40;100457.66;5062552;28;45411;-71
2023/07/01 04:22:28;;;;;;;;;5.50;4.00;;;;;19.13;53.56;100445.47;5062729;28;45261;-72
2023/07/01 04:24:53;;;;;;;;;5.75;5.00;;;;;19.13;52.77;100447.25;5062415;28;45336;-72
2023/07/01 04:27:18;;;;;;;;;2.75;1.50;;;;;19.13;53.14;100445.47;5062383;28;54684;-72
2023/07/01 04:29:43;;;;;;;;;4.50;4.00;;;;;19.13;53.02;100441.91;5062678;28;45462;-72
2023/07/01 04:32:09;;;;;;;;;5.00;4.00;;;;;19.10;53.09;100442.94;5062893;28;45354;-72
2023/07/01 04:34:35;;;;;;;;;3.25;3.25;;;;;19.11;53.34;100436.69;5062545;28;45319;-72
2023/07/01 04:37:00;;;;;;;;;5.00;5.00;;;;;19.10;53.48;100436.78;5062311;28;45303;-73
2023/07/01 04:39:26;;;;;;;;;3.50;3.00;;;;;19.10;53.66;100437.63;5062356;28;45339;-73
2023/07/01 04:41:51;;;;;;;;;4.00;4.00;;;;;19.11;53.65;100438.50;5061270;28;45369;-72
2023/07/01 04:44:16;;;;;;;;;6.25;4.50;;;;;19.07;53.40;100429.81;5062493;28;45246;-71
2023/07/01 04:46:42;;;;;;;;;4.00;4.00;;;;;19.08;53.88;100428.00;5071304;28;47161;-71
2023/07/01 04:49:09;;;;;;;;;3.25;3.25;;;;;19.09;53.73;100429.72;5063962;28;45375;-71
2023/07/01 04:51:36;;;;;;;;;2.50;2.50;;;;;19.07;53.67;100424.47;5071994;28;45329;-72
2023/07/01 04:54:04;;;;;;;;;2.50;2.50;;;;;19.06;53.94;100422.75;5082465;28;45256;-71
2023/07/01 04:56:29;;;;;;;;;2.25;2.25;;;;;19.08;54.11;100420.00;5081115;28;45395;-71
2023/07/01 04:58:55;;;;;;;;;2.00;1.50;;;;;19.06;53.46;100422.75;5076119;28;45315;-72
2023/07/01 05:01:20;;;;;;;;;2.25;2.25;;;;;19.09;54.03;100425.25;5062383;28;45411;-71
2023/07/01 05:03:45;;;;;;;;;0.75;0.75;;;;;19.09;54.09;100424.41;5062268;28;45311;-72
2023/07/01 05:06:11;;;;;;;;;2.00;2.00;;;;;19.05;54.32;100414.88;5060795;28;46122;-72
2023/07/01 05:08:36;;;;;;;;;3.00;2.00;;;;;19.08;54.10;100423.56;5060392;28;45321;-72
2023/07/01 05:11:01;;;;;;;;;4.00;4.00;;;;;19.07;54.04;100421.81;5060800;28;45233;-72
2023/07/01 05:13:27;;;;;;;;;2.00;2.00;;;;;19.07;54.11;100416.50;5061927;28;45216;-72
2023/07/01 05:15:52;;;;;;;;;2.50;1.25;;;;;19.08;54.44;100420.88;5069112;28;53598;-72
2023/07/01 05:18:17;;;;;;;;;2.75;1.00;;;;;19.09;54.47;100416.41;5061946;28;45235;-72
2023/07/01 05:20:42;;;;;;;;;0.50;0.50;;;;;19.08;54.52;100414.69;5061943;28;45320;-73
2023/07/01 05:23:08;;;;;;;;;1.25;1.25;;;;;19.10;54.61;100416.31;5059906;28;53781;-73
2023/07/01 05:25:33;;;;;;;;;2.00;2.00;;;;;19.10;54.32;100418.97;5060077;28;45333;-72
2023/07/01 05:27:58;;;;;;;;;1.00;1.00;;;;;19.10;54.29;100412.81;5061592;28;45319;-72
2023/07/01 05:30:24;;;;;;;;;1.00;1.00;;;;;19.11;54.24;100420.69;5062234;28;45211;-72
2023/07/01 05:32:49;;;;;;;;;3.00;1.00;;;;;19.11;55.06;100415.38;5060285;28;45632;-74
2023/07/01 05:35:14;;;;;;;;;4.75;3.50;;;;;19.14;55.07;100412.56;5061655;28;45436;-75
2023/07/01 05:37:40;;;;;;;;;2.00;2.00;;;;;19.10;54.73;100405.66;5061360;28;45432;-76
2023/07/01 05:40:06;;;;;;;;;2.75;1.00;;;;;19.07;54.58;100405.84;5061786;28;45282;-75
2023/07/01 05:42:31;;;;;;;;;1.75;1.00;;;;;19.12;54.14;100414.44;5061423;28;45484;-76
2023/07/01 05:44:57;;;;;;;;;2.50;1.50;;;;;19.13;54.92;100416.16;5061457;28;46258;-76
2023/07/01 05:47:22;;;;;;;;;0.00;0.00;;;;;19.06;54.83;100401.47;5072172;28;45422;-76
2023/07/01 05:49:47;;;;;;;;;1.00;1.00;;;;;19.12;55.50;100409.13;5067763;28;45457;-75
2023/07/01 05:52:12;;;;;;;;;0.00;0.00;;;;;19.14;55.59;100403.69;5077314;28;47756;-75
2023/07/01 05:54:38;;;;;;;;;1.00;1.00;;;;;19.13;55.44;100418.81;5070803;28;46184;-75
2023/07/01 05:57:04;;;;;;;;;1.00;1.00;;;;;19.16;55.39;100415.97;5059808;28;45510;-75
2023/07/01 05:59:29;;;;;;;;;0.75;0.75;;;;;19.17;55.18;100412.38;5061400;28;45504;-75
2023/07/01 06:01:54;;;;;;;;;1.00;1.00;;;;;19.17;55.28;100409.72;5061199;28;45442;-76
2023/07/01 06:04:20;;;;;;;;;1.00;1.00;;;;;19.21;55.21;100420.22;5061185;28;45316;-74
2023/07/01 06:06:45;;;;;;;;;1.00;1.00;;;;;19.21;55.47;100420.22;5060938;28;45296;-74
2023/07/01 06:09:11;;;;;;;;;0.00;0.00;;;;;19.22;55.11;100414.78;5061314;28;45249;-75
2023/07/01 06:11:36;;;;;;;;;1.25;1.00;;;;;19.21;55.14;100402.41;5060968;28;45274;-74
2023/07/01 06:14:01;;;;;;;;;1.00;1.00;;;;;19.23;55.60;100411.19;5061101;28;46393;-75
2023/07/01 06:16:27;;;;;;;;;2.25;1.00;;;;;19.24;55.10;100409.38;5061024;28;45247;-74
2023/07/01 06:18:52;;;;;;;;;1.00;1.00;;;;;19.27;55.72;100412.72;5059707;28;45178;-75
2023/07/01 06:21:19;;;;;;;;;1.00;1.00;;;;;19.28;55.54;100400.25;5060846;28;45459;-74
2023/07/01 06:23:45;;;;;;;;;0.75;0.75;;;;;19.27;55.53;100398.53;5060777;28;45299;-74
2023/07/01 06:26:10;;;;;;;;;1.25;1.25;;;;;19.28;55.86;100400.25;5059330;28;45229;-75
2023/07/01 06:28:35;;;;;;;;;3.00;3.00;;;;;19.32;55.62;100404.50;5060975;28;45157;-74
2023/07/01 06:31:00;;;;;;;;;2.25;1.25;;;;;19.32;55.70;100399.16;5060880;28;45480;-74
2023/07/01 06:33:26;;;;;;;;;0.50;0.50;;;;;19.35;55.82;100400.78;5059406;28;48148;-73
2023/07/01 06:35:51;;;;;;;;;0.00;0.00;;;;;19.37;55.59;100404.22;5060726;28;45520;-72
2023/07/01 06:38:16;;;;;;;;;0.50;0.50;;;;;19.38;56.12;100398.78;5058454;28;45316;-73
2023/07/01 06:40:42;;;;;;;;;1.00;1.00;;;;;19.38;55.61;100392.63;5059179;28;45309;-73
2023/07/01 06:43:07;;;;;;;;;0.00;0.00;;;;;19.41;56.07;100398.63;5060596;28;45426;-73
2023/07/01 06:45:32;;;;;;;;;1.00;1.00;;;;;19.42;55.98;100399.47;5060680;28;45371;-73
2023/07/01 06:47:58;;;;;;;;;1.00;1.00;;;;;19.44;55.98;100394.94;5072957;28;45425;-73
2023/07/01 06:50:23;;;;;;;;;0.25;0.25;;;;;19.45;56.19;100397.50;5061745;28;45383;-73
2023/07/01 06:52:49;;;;;;;;;0.00;0.00;;;;;19.48;56.06;100389.34;5080596;28;45425;-73
2023/07/01 06:55:15;;;;;;;;;0.75;0.75;;;;;19.51;56.25;100392.75;5080549;28;45349;-74
2023/07/01 06:57:41;;;;;;;;;1.25;0.00;;;;;19.54;56.19;100387.28;5078050;28;45482;-73
2023/07/01 07:00:12;;;;;;;;;0.00;0.00;;;;;19.55;56.39;100394.34;5072706;28;45362;-73
2023/07/01 07:02:38;;;;;;;;;0.00;0.00;;;;;19.59;56.33;100401.19;5058947;28;47310;-73
2023/07/01 07:05:05;;;;;;;;;0.75;0.75;;;;;19.61;56.16;100397.50;5058812;28;45314;-73
2023/07/01 07:07:30;;;;;;;;;0.00;0.00;;;;;19.65;56.29;100388.38;5060134;28;45260;-73
2023/07/01 07:09:55;;;;;;;;;0.75;0.75;;;;;19.68;56.16;100391.81;5071209;28;45296;-73
2023/07/01 07:12:21;;;;;;;;;1.00;1.00;;;;;19.71;56.41;100386.28;5060233;28;46413;-72
2023/07/01 07:14:46;;;;;;;;;1.00;1.00;;;;;19.73;56.20;100387.91;5058677;28;45305;-72
2023/07/01 07:17:12;;;;;;;;;0.75;0.00;;;;;19.80;56.56;100394.63;5060375;28;45473;-73
2023/07/01 07:19:37;;;;;;;;;1.00;1.00;;;;;19.83;56.51;100390.09;5059859;28;45599;-73
2023/07/01 07:22:03;;;;;;;;;1.00;1.00;;;;;19.85;56.17;100391.72;5059982;28;45303;-72
2023/07/01 07:24:28;;;;;;;;;0.50;0.50;;;;;19.92;56.60;100393.09;5059964;28;45175;-73
2023/07/01 07:27:00;;;;;;;;;0.00;0.00;;;;;19.94;56.55;100393.84;5060133;28;45274;-72
2023/07/01 07:29:28;;;;;;;;;2.00;2.00;;;;;19.97;56.44;100395.47;5071183;28;45498;-72
2023/07/01 07:31:55;;;;;;;;;0.50;0.50;;;;;19.99;56.61;100385.56;5047895;28;47567;-72
2023/07/01 07:34:20;;;;;;;;;1.00;0.00;;;;;20.05;56.59;100395.88;5071192;28;45312;-73
2023/07/01 07:36:46;;;;;;;;;1.25;1.25;;;;;20.09;56.35;100400.06;5059837;28;45204;-72
2023/07/01 07:39:14;;;;;;;;;0.00;0.00;;;;;20.10;56.72;100393.78;5059706;28;45391;-73
2023/07/01 07:41:40;;;;;;;;;1.00;1.00;;;;;20.12;56.65;100391.03;5059826;28;45347;-72
2023/07/01 07:44:06;;;;;;;;;1.25;1.25;;;;;20.16;56.77;100392.56;5059528;28;45253;-72
2023/07/01 07:46:35;;;;;;;;;3.00;1.75;;;;;20.19;56.65;100391.50;5067821;28;45294;-72
2023/07/01 07:49:01;;;;;;;;;3.00;2.00;;;;;20.22;56.83;100391.34;5063735;28;45441;-72
2023/07/01 07:51:26;;;;;;;;;1.00;1.00;;;;;20.26;56.88;100395.53;5071456;28;46885;-72
2023/07/01 07:53:51;;;;;;;;;2.00;2.00;;;;;20.24;56.49;100392.13;5083455;28;45394;-73
2023/07/01 07:56:17;;;;;;;;;0.00;0.00;;;;;20.29;56.52;100390.88;5083729;28;45326;-73
2023/07/01 07:58:42;;;;;;;;;1.25;1.25;;;;;20.30;56.50;100387.25;5071864;28;45528;-73
2023/07/01 08:01:08;;;;;;;;;4.00;1.00;;;;;20.31;57.06;100388.09;5061957;28;45467;-73
2023/07/01 08:03:33;;;;;;;;;2.50;1.25;;;;;20.37;56.86;100400.22;5063026;28;45283;-72
2023/07/01 08:05:58;;;;;;;;;1.75;1.75;;;;;20.38;57.08;100385.94;5063293;28;45256;-73
2023/07/01 08:08:24;;;;;;;;;1.00;1.00;;;;;20.39;57.36;100383.16;5062675;28;45514;-73
2023/07/01 08:10:50;;;;;;;;;2.75;2.75;;;;;20.43;57.02;100382.03;5062838;28;47058;-73
2023/07/01 08:13:15;;;;;;;;;2.50;2.00;;;;;20.48;57.01;100380.88;5062850;28;45459;-72
2023/07/01 08:15:42;;;;;;;;;1.25;1.00;;;;;20.44;57.24;100370.41;5063268;28;45489;-72
2023/07/01 08:18:07;;;;;;;;;1.00;1.00;;;;;20.54;56.89;100375.16;5062842;28;45466;-73
2023/07/01 08:20:33;;;;;;;;;1.00;1.00;;;;;20.60;56.83;100372.13;5061259;28;47144;-72
2023/07/01 08:22:58;;;;;;;;;1.00;1.00;;;;;20.60;57.43;100370.31;5062654;28;45204;-73
2023/07/01 08:25:24;;;;;;;;;2.00;2.00;;;;;20.61;56.91;100360.50;5062854;28;45386;-73
2023/07/01 08:27:49;;;;;;;;;1.00;1.00;;;;;20.67;57.09;100372.59;5061264;28;45478;-72
2023/07/01 08:30:15;;;;;;;;;1.00;1.00;;;;;20.71;57.22;100377.69;5062641;28;46024;-73
2023/07/01 08:32:41;;;;;;;;;1.00;1.00;;;;;20.76;57.07;100380.06;5061317;28;45445;-74
2023/07/01 08:35:07;;;;;;;;;2.75;1.00;;;;;20.76;57.18;100364.88;5062746;28;45389;-73
2023/07/01 08:37:33;;;;;;;;;2.50;0.75;;;;;20.81;56.91;100372.63;5062362;28;45291;-71
2023/07/01 08:39:59;;;;;;;;;2.00;2.00;;;;;20.87;57.22;100374.06;5062430;28;45618;-73
2023/07/01 08:42:34;;;;;;;;;1.00;1.00;;;;;20.90;57.22;100381.88;5062479;28;45485;-73
2023/07/01 08:44:59;;;;;;;;;2.00;2.00;;;;;20.91;56.86;100375.56;5061323;28;45555;-73
2023/07/01 08:47:26;;;;;;;;;1.00;1.00;;;;;20.95;56.58;100366.41;5074971;28;45345;-73
2023/07/01 08:49:55;;;;;;;;;1.00;1.00;;;;;20.98;56.82;100363.56;5062373;28;45262;-73
2023/07/01 08:52:22;;;;;;;;;0.50;0.50;;;;;21.01;56.74;100371.34;5079526;28;45170;-72
2023/07/01 08:54:48;;;;;;;;;3.25;1.00;;;;;21.05;57.00;100372.88;5082504;28;45493;-73
2023/07/01 08:57:14;;;;;;;;;1.50;1.00;;;;;21.07;56.62;100368.28;5082437;28;45338;-73
2023/07/01 08:59:42;;;;;;;;;3.75;2.00;;;;;21.09;56.97;100369.06;5062141;28;45449;-73
2023/07/01 09:02:08;;;;;;;;;1.75;1.75;;;;;21.11;56.98;100356.44;5062012;28;45353;-73
2023/07/01 09:04:35;;;;;;;;;1.00;1.00;;;;;21.13;56.39;100351.03;5062425;28;45287;-73
2023/07/01 09:07:00;;;;;;;;;2.00;2.00;;;;;21.18;56.88;100356.06;5061747;28;45241;-72
2023/07/01 09:09:26;;;;;;;;;2.25;2.25;;;;;21.23;56.71;100362.81;5062083;28;45411;-71
2023/07/01 09:11:51;;;;;;;;;3.25;2.00;;;;;21.26;57.08;100367.13;5061783;28;45359;-71
2023/07/01 09:14:16;;;;;;;;;2.00;2.00;;;;;21.32;56.94;100357.81;5062296;28;45211;-72
2023/07/01 09:16:42;;;;;;;;;2.00;2.00;;;;;21.38;56.51;100363.66;5061927;28;45485;-73
2023/07/01 09:19:16;;;;;;;;;2.00;1.00;;;;;21.43;56.87;100358.84;5062157;28;46235;-71
2023/07/01 09:21:42;;;;;;;;;1.50;1.50;;;;;21.51;56.53;100354.78;5060204;28;45948;-72
2023/07/01 09:24:10;;;;;;;;;1.00;1.00;;;;;21.53;56.45;100355.56;5061942;28;45319;-72
2023/07/01 09:26:35;;;;;;;;;2.00;2.00;;;;;21.59;56.22;100357.84;5061597;28;45517;-73
2023/07/01 09:29:09;;;;;;;;;1.00;1.00;;;;;21.66;56.57;100363.63;5061853;28;45443;-72
2023/07/01 09:31:48;;;;;;;;;1.00;1.00;;;;;21.69;56.12;100347.41;5068119;28;45358;-73
2023/07/01 09:34:15;;;;;;;;;1.33;0.00;;;;;21.78;55.80;100353.97;5082015;28;45262;-73
2023/07/01 09:36:40;;;;;;;;;1.00;1.00;;;;;21.83;55.78;100354.50;5080487;28;45320;-73
2023/07/01 09:39:05;;;;;;;;;1.00;1.00;;;;;21.88;55.93;100352.38;5081697;28;45432;-72
2023/07/01 09:41:31;;;;;;;;;0.50;0.50;;;;;21.91;56.03;100355.69;5080090;28;45217;-72
2023/07/01 09:43:58;;;;;;;;;0.25;0.00;;;;;21.99;55.72;100359.69;5065630;27;45453;-72
2023/07/01 09:46:39;;;;;;;;;0.00;0.00;;;;;22.04;55.64;100358.38;5066863;28;45623;-72
2023/07/01 09:49:05;;;;;;;;;1.75;1.25;;;;;22.07;55.37;100363.53;5064129;28;46560;-72
2023/07/01 09:51:30;;;;;;;;;0.00;0.00;;;;;22.11;55.33;100357.97;5070739;28;45970;-72
2023/07/01 09:53:57;;;;;;;;;0.25;0.25;;;;;22.15;55.47;100356.78;5081302;27;45475;-71
2023/07/01 09:56:22;;;;;;;;;1.00;1.00;;;;;22.18;55.68;100368.13;5071301;27;45490;-72
2023/07/01 09:58:50;;;;;;;;;2.00;1.00;;;;;22.16;54.69;100356.69;5060983;28;47464;-72
2023/07/01 10:01:17;;;;;;;;;1.00;1.00;;;;;22.19;54.35;100352.94;5072171;28;45384;-71
2023/07/01 10:03:43;;;;;;;;;1.75;1.00;;;;;22.18;54.12;100352.06;5063719;28;45207;-72
2023/07/01 10:06:10;;;;;;;;;1.33;0.00;;;;;22.17;53.74;100344.16;5059977;28;45596;-72
2023/07/01 10:08:36;;;;;;;;;2.00;1.00;;;;;22.21;54.08;100354.56;5059471;28;47376;-72
2023/07/01 10:11:28;;;;;;;;;0.00;0.00;;;;;22.24;53.35;100353.50;5059475;28;45408;-70
2023/07/01 10:13:57;;;;;;;;;3.00;1.75;;;;;22.25;53.61;100355.22;5057997;28;45554;-71
2023/07/01 10:16:23;;;;;;;;;0.00;0.00;;;;;22.29;53.30;100348.66;5060792;28;45342;-71
2023/07/01 10:18:48;;;;;;;;;2.00;2.00;;;;;22.35;53.75;100350.03;5060844;28;46145;-71
2023/07/01 10:21:22;;;;;;;;;0.50;0.50;;;;;22.40;53.21;100351.47;5059254;28;45305;-71
2023/07/01 10:23:48;;;;;;;;;1.50;1.50;;;;;22.44;53.06;100354.81;5061159;28;45350;-71
2023/07/01 10:26:36;;;;;;;;;1.00;1.00;;;;;22.52;53.08;100365.81;5059377;28;46234;-70
2023/07/01 10:29:30;;;;;;;;;1.75;1.75;;;;;22.60;52.53;100354.56;5059364;28;47353;-72
2023/07/01 10:32:13;;;;;;;;;2.00;2.00;;;;;22.66;52.40;100374.69;5070441;28;45267;-70
2023/07/01 10:34:53;;;;;;;;;2.75;2.00;;;;;22.75;52.37;100367.84;5080894;28;45477;-70
2023/07/01 10:37:21;;;;;;;;;2.25;2.25;;;;;22.80;52.06;100385.28;5080844;28;45374;-70
2023/07/01 10:39:47;;;;;;;;;2.00;2.00;;;;;22.84;51.88;100368.03;5080749;28;45949;-70
2023/07/01 10:42:36;;;;;;;;;2.50;2.00;;;;;22.89;51.87;100354.28;5079541;28;45310;-70
2023/07/01 10:45:11;;;;;;;;;2.50;2.50;;;;;23.00;51.71;100367.75;5079853;27;45425;-70
2023/07/01 10:47:44;;;;;;;;;3.25;3.25;;;;;23.08;51.57;100350.28;5079424;28;45849;-73
2023/07/01 10:50:15;;;;;;;;;3.50;3.00;;;;;23.21;51.67;100353.81;5066182;28;47369;-68
2023/07/01 10:52:55;;;;;;;;;4.00;4.00;;;;;23.33;51.01;100365.44;5058797;28;46069;-68
2023/07/01 10:55:38;;;;;;;;;2.00;2.00;;;;;23.47;50.86;100359.94;5075755;28;45488;-69
2023/07/01 10:58:23;;;;;;;;;4.50;4.00;;;;;23.60;50.26;100356.34;5074571;28;45330;-72
2023/07/01 11:00:58;;;;;;;;;3.25;3.00;;;;;23.72;50.56;100371.47;5060297;28;45633;-74
2023/07/01 11:03:36;;;;;;;;;6.00;4.00;;;;;23.82;50.24;100368.97;5058888;28;45342;-76
2023/07/01 11:06:11;;;;;;;;;4.00;4.00;;;;;23.86;50.07;100365.06;5060344;28;45299;-76
2023/07/01 11:08:48;;;;;;;;;7.00;4.75;;;;;23.93;49.64;100366.34;5059058;28;45479;-76
2023/07/01 11:11:28;;;;;;;;;2.75;2.75;;;;;23.98;49.80;100361.47;5060016;28;46181;-76
2023/07/01 11:14:13;;;;;;;;;4.75;4.75;;;;;24.03;49.33;100366.50;5067699;28;45383;-76
2023/07/01 11:16:39;;;;;;;;;4.00;4.00;;;;;24.04;49.29;100372.72;5080112;28;45327;-73
2023/07/01 11:19:07;;;;;;;;;3.25;3.25;;;;;24.07;49.15;100372.50;5079106;27;45276;-74
2023/07/01 11:21:33;;;;;;;;;4.00;3.50;;;;;24.08;49.08;100363.47;5079644;28;46193;-74
2023/07/01 11:24:04;;;;;;;;;4.25;3.00;;;;;24.10;48.85;100357.00;5080168;28;45276;-75